createdAt,value
2019-03-17T00:00:12.167Z,99463.20
2019-03-17T00:02:41.678Z,99469.93
2019-03-17T00:05:11.453Z,99456.02
2019-03-17T00:07:42.533Z,99451.47
2019-03-17T00:10:11.341Z,99455.02
2019-03-17T00:12:40.335Z,99446.83
2019-03-17T00:15:09.398Z,99447.41
2019-03-17T00:17:38.043Z,99436.17
2019-03-17T00:20:07.954Z,99453.24
2019-03-17T00:22:36.571Z,99433.31
2019-03-17T00:25:09.749Z,99427.87
2019-03-17T00:27:37.361Z,99421.69
2019-03-17T00:30:08.950Z,99412.02
2019-03-17T00:32:37.591Z,99408.20
2019-03-17T00:35:06.883Z,99413.58
2019-03-17T00:37:35.682Z,99403.88
2019-03-17T00:40:08.467Z,99406.27
2019-03-17T00:42:37.083Z,99386.77
2019-03-17T00:45:11.382Z,99403.16
2019-03-17T00:47:39.376Z,99395.03
2019-03-17T00:50:10.461Z,99396.39
2019-03-17T00:52:39.185Z,99383.91
2019-03-17T00:55:08.045Z,99380.36
2019-03-17T00:57:36.729Z,99371.47
2019-03-17T01:00:32.386Z,99369.94
2019-03-17T01:03:01.103Z,99366.66
2019-03-17T01:05:31.247Z,99370.66
2019-03-17T01:08:00.495Z,99359.84
2019-03-17T01:10:29.136Z,99359.81
2019-03-17T01:12:57.882Z,99356.92
2019-03-17T01:15:26.663Z,99352.59
2019-03-17T01:17:55.393Z,99345.33
2019-03-17T01:20:24.077Z,99326.78
2019-03-17T01:22:52.811Z,99340.98
2019-03-17T01:25:21.434Z,99328.94
2019-03-17T01:27:50.226Z,99334.62
2019-03-17T01:30:18.916Z,99337.09
2019-03-17T01:32:47.665Z,99326.29
2019-03-17T01:35:16.503Z,99327.01
2019-03-17T01:37:45.221Z,99319.48
2019-03-17T01:40:13.961Z,99300.42
2019-03-17T01:42:42.771Z,99328.17
2019-03-17T01:45:11.403Z,99316.19
2019-03-17T01:47:40.144Z,99307.17
2019-03-17T01:50:09.732Z,99294.91
2019-03-17T01:52:38.438Z,99300.41
2019-03-17T01:55:07.851Z,99282.96
2019-03-17T01:57:36.575Z,99292.53
2019-03-17T02:00:08.394Z,99294.73
2019-03-17T02:02:37.107Z,99287.45
2019-03-17T02:05:07.736Z,99277.97
2019-03-17T02:07:36.499Z,99289.65
2019-03-17T02:10:06.984Z,99279.81
2019-03-17T02:12:35.839Z,99297.98
2019-03-17T02:15:07.867Z,99286.22
2019-03-17T02:17:36.617Z,99259.64
2019-03-17T02:20:08.143Z,99280.81
2019-03-17T02:22:36.865Z,99291.13
2019-03-17T02:25:06.686Z,99272.98
2019-03-17T02:27:35.408Z,99273.57
2019-03-17T02:30:05.481Z,99280.38
2019-03-17T02:32:34.012Z,99257.30
2019-03-17T02:35:02.648Z,99261.72
2019-03-17T02:37:31.414Z,99250.64
2019-03-17T02:40:00.547Z,99268.87
2019-03-17T02:42:29.838Z,99268.87
2019-03-17T02:44:58.689Z,99264.16
2019-03-17T02:47:27.380Z,99265.09
2019-03-17T02:49:56.070Z,99255.91
2019-03-17T02:52:24.854Z,99254.09
2019-03-17T02:54:53.582Z,99255.45
2019-03-17T02:57:22.298Z,99242.21
2019-03-17T02:59:51.072Z,99248.50
2019-03-17T03:02:19.783Z,99240.09
2019-03-17T03:04:48.614Z,99226.08
2019-03-17T03:07:17.321Z,99226.85
2019-03-17T03:09:46.067Z,99210.92
2019-03-17T03:12:14.777Z,99203.34
2019-03-17T03:14:43.558Z,99218.75
2019-03-17T03:17:12.763Z,99217.05
2019-03-17T03:19:41.470Z,99214.20
2019-03-17T03:22:10.210Z,99225.54
2019-03-17T03:24:38.902Z,99209.34
2019-03-17T03:27:07.581Z,99227.70
2019-03-17T03:29:36.241Z,99209.11
2019-03-17T03:32:05.550Z,99166.92
2019-03-17T03:34:34.477Z,99126.18
2019-03-17T03:37:03.032Z,99203.47
2019-03-17T03:39:31.765Z,99199.01
2019-03-17T03:42:00.785Z,99219.69
2019-03-17T03:44:29.509Z,99221.78
2019-03-17T03:46:58.126Z,99219.47
2019-03-17T03:49:26.716Z,99215.75
2019-03-17T03:51:55.270Z,99210.36
2019-03-17T03:54:23.985Z,99227.28
2019-03-17T03:56:52.641Z,99225.18
2019-03-17T03:59:21.371Z,99201.27
2019-03-17T04:01:50.029Z,99219.12
2019-03-17T04:04:18.689Z,99206.21
2019-03-17T04:06:47.309Z,99222.95
2019-03-17T04:09:16.001Z,99200.91
2019-03-17T04:11:44.766Z,99215.55
2019-03-17T04:14:13.584Z,99206.43
2019-03-17T04:16:42.207Z,99205.08
2019-03-17T04:19:10.976Z,99215.67
2019-03-17T04:21:39.607Z,99221.08
2019-03-17T04:24:08.335Z,99209.52
2019-03-17T04:26:37.058Z,99214.66
2019-03-17T04:29:05.793Z,99230.02
2019-03-17T04:31:34.698Z,99209.08
2019-03-17T04:34:03.413Z,99206.92
2019-03-17T04:36:40.171Z,99219.09
2019-03-17T04:39:02.664Z,99219.62
2019-03-17T04:41:31.275Z,99206.13
2019-03-17T04:43:59.929Z,99215.30
2019-03-17T04:46:28.658Z,99212.08
2019-03-17T04:48:57.545Z,99228.27
2019-03-17T04:51:26.429Z,99219.35
2019-03-17T04:53:55.199Z,99207.50
2019-03-17T04:56:24.046Z,99229.55
2019-03-17T04:58:52.643Z,99226.33
2019-03-17T05:01:21.310Z,99228.27
2019-03-17T05:03:50.100Z,99237.69
2019-03-17T05:06:18.726Z,99230.95
2019-03-17T05:08:47.352Z,99224.50
2019-03-17T05:11:16.244Z,99233.14
2019-03-17T05:13:44.983Z,99237.97
2019-03-17T05:16:13.673Z,99247.69
2019-03-17T05:18:42.498Z,99246.09
2019-03-17T05:21:11.042Z,99260.34
2019-03-17T05:23:39.591Z,99296.20
2019-03-17T05:26:08.241Z,99296.20
2019-03-17T05:28:37.003Z,99330.69
2019-03-17T05:31:05.703Z,99355.88
2019-03-17T05:33:34.393Z,99361.75
2019-03-17T05:36:03.170Z,99363.56
2019-03-17T05:38:31.793Z,99365.91
2019-03-17T05:41:00.623Z,99361.88
2019-03-17T05:43:29.299Z,99373.91
2019-03-17T05:45:57.926Z,99371.75
2019-03-17T05:48:26.638Z,99377.39
2019-03-17T05:50:55.933Z,99385.92
2019-03-17T05:53:24.775Z,99398.05
2019-03-17T05:55:53.467Z,99401.25
2019-03-17T05:58:22.122Z,99402.25
2019-03-17T06:00:50.806Z,99426.67
2019-03-17T06:03:19.658Z,99431.45
2019-03-17T06:05:48.351Z,99431.44
2019-03-17T06:08:17.041Z,99433.30
2019-03-17T06:10:45.931Z,99430.08
2019-03-17T06:13:14.645Z,99423.39
2019-03-17T06:15:43.365Z,99427.13
2019-03-17T06:18:12.102Z,99439.47
2019-03-17T06:20:40.851Z,99440.22
2019-03-17T06:23:09.474Z,99429.25
2019-03-17T06:25:38.118Z,99424.66
2019-03-17T06:28:06.795Z,99427.08
2019-03-17T06:30:35.567Z,99435.16
2019-03-17T06:33:04.902Z,99438.33
2019-03-17T06:35:33.772Z,99424.63
2019-03-17T06:38:02.451Z,99429.72
2019-03-17T06:40:31.181Z,99456.80
2019-03-17T06:42:59.928Z,99459.48
2019-03-17T06:45:28.661Z,99450.34
2019-03-17T06:47:57.350Z,99466.23
2019-03-17T06:50:26.240Z,99475.39
2019-03-17T06:52:54.971Z,99486.12
2019-03-17T06:55:23.693Z,99502.23
2019-03-17T06:57:52.358Z,99497.67
2019-03-17T07:00:21.066Z,99509.75
2019-03-17T07:02:49.858Z,99496.32
2019-03-17T07:05:18.394Z,99493.06
2019-03-17T07:07:47.053Z,99490.94
2019-03-17T07:10:15.872Z,99494.17
2019-03-17T07:12:44.713Z,99492.59
2019-03-17T07:15:13.543Z,99503.33
2019-03-17T07:17:42.302Z,99503.94
2019-03-17T07:20:13.452Z,99512.02
2019-03-17T07:22:42.113Z,99526.23
2019-03-17T07:25:10.956Z,99528.12
2019-03-17T07:27:40.440Z,99540.73
2019-03-17T07:30:14.733Z,99545.55
2019-03-17T07:32:43.467Z,99549.83
2019-03-17T07:35:12.264Z,99538.55
2019-03-17T07:37:41.706Z,99549.59
2019-03-17T07:40:12.281Z,99560.36
2019-03-17T07:42:42.446Z,99553.41
2019-03-17T07:45:12.702Z,99560.13
2019-03-17T07:47:42.249Z,99573.55
2019-03-17T07:50:14.497Z,99587.24
2019-03-17T07:52:44.589Z,99577.79
2019-03-17T07:55:13.479Z,99573.22
2019-03-17T07:57:42.360Z,99586.43
2019-03-17T08:00:15.376Z,99582.13
2019-03-17T08:02:44.913Z,99587.10
2019-03-17T08:05:13.767Z,99590.61
2019-03-17T08:07:43.204Z,99594.80
2019-03-17T08:10:13.788Z,99593.39
2019-03-17T08:12:42.783Z,99592.04
2019-03-17T08:15:13.883Z,99600.94
2019-03-17T08:17:42.576Z,99601.22
2019-03-17T08:20:16.347Z,99608.83
2019-03-17T08:22:55.534Z,99611.21
2019-03-17T08:25:24.323Z,99614.94
2019-03-17T08:27:53.054Z,99620.04
2019-03-17T08:30:21.901Z,99626.55
2019-03-17T08:32:51.453Z,99637.25
2019-03-17T08:35:20.064Z,99632.97
2019-03-17T08:37:50.981Z,99630.38
2019-03-17T08:40:23.308Z,99630.38
2019-03-17T08:42:51.848Z,99629.80
2019-03-17T08:45:21.934Z,99627.09
2019-03-17T08:47:57.759Z,99626.46
2019-03-17T08:50:23.106Z,99631.31
2019-03-17T08:52:51.754Z,99632.83
2019-03-17T08:55:20.484Z,99634.17
2019-03-17T08:57:49.763Z,99641.69
2019-03-17T09:00:19.606Z,99651.13
2019-03-17T09:02:48.871Z,99646.42
2019-03-17T09:05:17.596Z,99652.33
2019-03-17T09:07:46.339Z,99648.13
2019-03-17T09:10:18.197Z,99641.64
2019-03-17T09:12:47.244Z,99655.59
2019-03-17T09:15:16.013Z,99660.98
2019-03-17T09:17:44.776Z,99659.09
2019-03-17T09:20:16.619Z,99659.38
2019-03-17T09:22:45.463Z,99671.05
2019-03-17T09:25:14.184Z,99684.27
2019-03-17T09:27:45.087Z,99712.80
2019-03-17T09:30:15.649Z,99703.63
2019-03-17T09:32:46.349Z,99732.94
2019-03-17T09:35:17.414Z,99725.00
2019-03-17T09:37:54.426Z,99722.29
2019-03-17T09:40:23.219Z,99714.28
2019-03-17T09:42:52.085Z,99717.80
2019-03-17T09:45:21.042Z,99718.73
2019-03-17T09:47:50.080Z,99720.39
2019-03-17T09:50:20.760Z,99725.83
2019-03-17T09:52:50.316Z,99727.94
2019-03-17T09:55:19.450Z,99726.41
2019-03-17T09:57:48.610Z,99726.45
2019-03-17T10:00:21.641Z,99732.58
2019-03-17T10:02:52.458Z,99726.03
2019-03-17T10:05:23.697Z,99731.98
2019-03-17T10:07:57.690Z,99727.66
2019-03-17T10:10:28.358Z,99728.39
2019-03-17T10:12:59.091Z,99731.09
2019-03-17T10:15:29.002Z,99735.89
2019-03-17T10:17:58.212Z,99725.48
2019-03-17T10:20:27.858Z,99715.16
2019-03-17T10:22:56.778Z,99722.98
2019-03-17T10:25:25.784Z,99726.84
2019-03-17T10:27:54.932Z,99730.94
2019-03-17T10:30:24.135Z,99733.62
2019-03-17T10:32:53.219Z,99753.14
2019-03-17T10:35:22.260Z,99748.35
2019-03-17T10:37:51.202Z,99755.94
2019-03-17T10:40:23.632Z,99761.29
2019-03-17T10:42:52.741Z,99752.98
2019-03-17T10:45:23.304Z,99767.83
2019-03-17T10:47:54.512Z,99762.41
2019-03-17T10:50:28.253Z,99765.06
2019-03-17T10:52:57.152Z,99769.25
2019-03-17T10:55:27.740Z,99771.56
2019-03-17T10:57:58.268Z,99778.46
2019-03-17T11:00:33.287Z,99772.77
2019-03-17T11:03:02.808Z,99767.56
2019-03-17T11:05:38.524Z,99777.28
2019-03-17T11:08:07.603Z,99777.22
2019-03-17T11:10:39.586Z,99777.84
2019-03-17T11:13:08.796Z,99782.52
2019-03-17T11:15:37.608Z,99794.09
2019-03-17T11:18:08.950Z,99793.97
2019-03-17T11:20:39.636Z,99794.72
2019-03-17T11:23:08.900Z,99801.13
2019-03-17T11:25:40.917Z,99802.55
2019-03-17T11:28:11.054Z,99825.81
2019-03-17T11:30:42.936Z,99885.27
2019-03-17T11:33:16.504Z,99887.42
2019-03-17T11:35:47.025Z,99897.98
2019-03-17T11:38:16.503Z,99894.75
2019-03-17T11:40:45.356Z,99891.92
2019-03-17T11:43:15.638Z,99885.80
2019-03-17T11:45:44.787Z,99895.88
2019-03-17T11:48:13.713Z,99877.77
2019-03-17T11:50:44.412Z,99880.48
2019-03-17T11:53:16.617Z,99875.37
2019-03-17T11:55:48.279Z,99884.71
2019-03-17T11:58:17.736Z,99889.04
2019-03-17T12:00:49.665Z,99891.25
2019-03-17T12:03:19.952Z,99884.83
2019-03-17T12:05:52.257Z,99890.92
2019-03-17T12:08:21.548Z,99890.21
2019-03-17T12:10:52.411Z,99890.38
2019-03-17T12:13:24.830Z,99890.25
2019-03-17T12:16:09.203Z,99883.31
2019-03-17T12:18:37.035Z,99893.16
2019-03-17T12:21:09.415Z,99900.98
2019-03-17T12:23:43.645Z,99892.41
2019-03-17T12:26:14.054Z,99889.64
2019-03-17T12:28:43.793Z,99900.94
2019-03-17T12:31:23.178Z,99900.38
2019-03-17T12:33:49.019Z,99914.95
2019-03-17T12:36:19.162Z,99909.24
2019-03-17T12:38:50.802Z,99912.30
2019-03-17T12:41:27.785Z,99915.09
2019-03-17T12:43:56.632Z,99896.58
2019-03-17T12:46:28.795Z,99906.92
2019-03-17T12:48:59.524Z,99906.05
2019-03-17T12:51:31.356Z,99926.80
2019-03-17T12:54:00.098Z,99913.38
2019-03-17T12:56:43.200Z,99925.02
2019-03-17T12:59:24.215Z,99920.16
2019-03-17T13:01:52.065Z,99927.50
2019-03-17T13:04:23.124Z,99924.84
2019-03-17T13:06:54.378Z,99918.08
2019-03-17T13:09:37.955Z,99914.31
2019-03-17T13:12:23.333Z,99922.95
2019-03-17T13:15:05.225Z,99891.38
2019-03-17T13:17:51.534Z,99911.84
2019-03-17T13:20:38.248Z,99925.39
2019-03-17T13:23:26.307Z,99938.32
2019-03-17T13:26:16.901Z,99963.58
2019-03-17T13:29:05.241Z,99937.86
2019-03-17T13:31:56.859Z,99967.20
2019-03-17T13:34:33.887Z,99959.39
2019-03-17T13:37:06.836Z,99974.26
2019-03-17T13:39:39.242Z,99971.01
2019-03-17T13:42:08.024Z,99981.80
2019-03-17T13:44:36.970Z,99964.19
2019-03-17T13:47:07.826Z,99970.29
2019-03-17T13:49:37.420Z,99981.27
2019-03-17T13:52:06.432Z,99980.19
2019-03-17T13:54:35.220Z,99982.06
2019-03-17T13:57:03.940Z,100011.21
2019-03-17T13:59:32.682Z,100007.14
2019-03-17T14:02:01.544Z,100007.58
2019-03-17T14:04:30.384Z,100009.83
2019-03-17T14:06:59.088Z,100009.83
2019-03-17T14:09:27.834Z,100027.37
2019-03-17T14:11:56.733Z,100025.83
2019-03-17T14:14:25.626Z,100030.41
2019-03-17T14:16:56.842Z,100026.34
2019-03-17T14:19:25.733Z,100028.81
2019-03-17T14:21:56.263Z,100024.86
2019-03-17T14:24:25.104Z,100022.63
2019-03-17T14:26:53.859Z,100031.61
2019-03-17T14:29:22.593Z,100042.30
2019-03-17T14:31:53.891Z,100038.27
2019-03-17T14:34:24.007Z,100029.89
2019-03-17T14:36:52.746Z,100039.33
2019-03-17T14:39:40.626Z,100050.66
2019-03-17T14:42:14.439Z,100065.19
2019-03-17T14:44:44.252Z,100076.17
2019-03-17T14:47:26.424Z,100081.23
2019-03-17T14:50:02.879Z,100087.06
2019-03-17T14:52:46.871Z,100073.91
2019-03-17T14:55:30.258Z,100081.95
2019-03-17T14:58:12.533Z,100083.59
2019-03-17T15:00:59.398Z,100079.28
2019-03-17T15:03:54.932Z,100078.80
2019-03-17T15:06:41.207Z,100089.88
2019-03-17T15:09:32.942Z,100094.87
2019-03-17T15:12:17.459Z,100100.99
2019-03-17T15:14:59.807Z,100120.06
2019-03-17T15:17:55.414Z,100111.24
2019-03-17T15:20:30.525Z,100110.14
2019-03-17T15:23:16.942Z,100106.91
2019-03-17T15:26:06.226Z,100097.44
2019-03-17T15:28:50.381Z,100108.80
2019-03-17T15:31:34.396Z,100110.98
2019-03-17T15:34:04.186Z,100123.55
2019-03-17T15:36:47.405Z,100118.35
2019-03-17T15:39:32.991Z,100136.90
2019-03-17T15:42:19.440Z,100136.95
2019-03-17T15:45:03.855Z,100098.00
2019-03-17T15:47:46.382Z,100139.05
2019-03-17T15:50:32.302Z,100142.15
2019-03-17T15:53:16.330Z,100148.67
2019-03-17T15:55:58.397Z,100149.80
2019-03-17T15:58:36.920Z,100166.09
2019-03-17T16:01:07.313Z,100168.22
2019-03-17T16:03:50.813Z,100154.79
2019-03-17T16:06:35.200Z,100163.59
2019-03-17T16:09:19.725Z,100171.26
2019-03-17T16:12:05.239Z,100175.64
2019-03-17T16:14:47.153Z,100174.67
2019-03-17T16:17:35.362Z,100177.89
2019-03-17T16:20:20.962Z,100186.93
2019-03-17T16:23:14.300Z,100202.17
2019-03-17T16:26:09.143Z,100203.44
2019-03-17T16:31:45.909Z,100209.39
2019-03-17T16:34:29.350Z,100206.08
2019-03-17T16:37:14.317Z,100214.84
2019-03-17T16:43:04.887Z,100216.73
2019-03-17T16:45:51.178Z,100223.82
2019-03-17T16:48:35.239Z,100226.88
2019-03-17T16:51:17.827Z,100234.53
2019-03-17T16:54:01.750Z,100166.83
2019-03-17T16:56:44.763Z,100250.71
2019-03-17T16:59:20.996Z,100254.02
2019-03-17T17:01:53.692Z,100260.16
2019-03-17T17:04:24.975Z,100261.11
2019-03-17T17:07:03.649Z,100268.73
2019-03-17T17:09:36.107Z,100267.49
2019-03-17T17:12:07.740Z,100260.94
2019-03-17T17:14:38.136Z,100258.58
2019-03-17T17:17:08.536Z,100260.53
2019-03-17T17:19:38.790Z,100258.73
2019-03-17T17:22:10.514Z,100265.88
2019-03-17T17:24:40.612Z,100264.14
2019-03-17T17:27:11.158Z,100271.31
2019-03-17T17:29:44.303Z,100270.63
2019-03-17T17:32:14.081Z,100275.63
2019-03-17T17:34:43.268Z,100274.70
2019-03-17T17:37:12.120Z,100294.74
2019-03-17T17:39:40.854Z,100293.25
2019-03-17T17:42:10.382Z,100297.87
2019-03-17T17:44:39.855Z,100314.77
2019-03-17T17:47:08.507Z,100310.09
2019-03-17T17:49:37.306Z,100313.64
2019-03-17T17:52:06.097Z,100316.97
2019-03-17T17:54:34.892Z,100307.05
2019-03-17T17:57:03.566Z,100315.75
2019-03-17T17:59:32.176Z,100321.42
2019-03-17T18:02:00.829Z,100322.42
2019-03-17T18:04:29.441Z,100324.29
2019-03-17T18:06:57.966Z,100316.06
2019-03-17T18:09:26.600Z,100332.13
2019-03-17T18:11:55.571Z,100333.62
2019-03-17T18:14:26.037Z,100347.13
2019-03-17T18:16:55.770Z,100331.20
2019-03-17T18:19:27.332Z,100335.45
2019-03-17T18:21:56.870Z,100344.70
2019-03-17T18:24:25.866Z,100348.47
2019-03-17T18:26:54.785Z,100345.22
2019-03-17T18:29:23.879Z,100346.13
2019-03-17T18:31:52.740Z,100352.49
2019-03-17T18:34:21.999Z,100365.05
2019-03-17T18:36:50.961Z,100364.95
2019-03-17T18:39:20.154Z,100366.93
2019-03-17T18:41:52.528Z,100359.09
2019-03-17T18:44:21.616Z,100369.27
2019-03-17T18:46:50.921Z,100369.16
2019-03-17T18:49:19.713Z,100371.66
2019-03-17T18:51:48.690Z,100378.53
2019-03-17T18:54:17.393Z,100384.69
2019-03-17T18:56:46.339Z,100387.37
2019-03-17T18:59:17.778Z,100390.41
2019-03-17T19:01:45.866Z,100393.00
2019-03-17T19:04:16.674Z,100397.36
2019-03-17T19:06:46.877Z,100399.89
2019-03-17T19:09:17.012Z,100395.62
2019-03-17T19:11:48.353Z,100400.30
2019-03-17T19:14:18.936Z,100403.91
2019-03-17T19:16:52.326Z,100406.02
2019-03-17T19:19:25.893Z,100408.76
2019-03-17T19:21:55.060Z,100408.59
2019-03-17T19:24:24.257Z,100410.38
2019-03-17T19:26:54.839Z,100420.24
2019-03-17T19:29:24.722Z,100413.37
2019-03-17T19:31:55.183Z,100410.32
2019-03-17T19:34:24.291Z,100418.08
2019-03-17T19:36:53.319Z,100423.20
2019-03-17T19:39:22.375Z,100427.74
2019-03-17T19:41:51.361Z,100422.05
2019-03-17T19:44:24.607Z,100426.19
2019-03-17T19:46:53.975Z,100422.98
2019-03-17T19:49:23.916Z,100421.00
2019-03-17T19:51:54.601Z,100422.14
2019-03-17T19:54:24.004Z,100432.03
2019-03-17T19:56:53.511Z,100425.88
2019-03-17T19:59:27.254Z,100432.03
2019-03-17T20:01:59.628Z,100436.54
2019-03-17T20:04:35.187Z,100433.58
2019-03-17T20:07:02.331Z,100438.33
2019-03-17T20:09:31.316Z,100432.06
2019-03-17T20:12:01.902Z,100439.01
2019-03-17T20:14:30.703Z,100433.73
2019-03-17T20:16:59.594Z,100437.30
2019-03-17T20:19:28.445Z,100446.83
2019-03-17T20:21:58.044Z,100453.16
2019-03-17T20:24:26.934Z,100450.02
2019-03-17T20:26:55.650Z,100448.68
2019-03-17T20:29:24.487Z,100450.78
2019-03-17T20:31:53.371Z,100456.63
2019-03-17T20:34:22.163Z,100457.33
2019-03-17T20:36:50.956Z,100459.12
2019-03-17T20:39:19.526Z,100459.58
2019-03-17T20:41:48.132Z,100453.84
2019-03-17T20:44:16.703Z,100456.20
2019-03-17T20:46:45.343Z,100461.53
2019-03-17T20:49:14.827Z,100454.93
2019-03-17T20:51:43.541Z,100464.45
2019-03-17T20:54:12.288Z,100464.45
2019-03-17T20:56:41.092Z,100464.48
2019-03-17T20:59:10.125Z,100471.91
2019-03-17T21:01:38.769Z,100468.34
2019-03-17T21:04:17.811Z,100466.35
2019-03-17T21:06:46.684Z,100472.92
2019-03-17T21:09:15.389Z,100479.38
2019-03-17T21:11:44.480Z,100478.16
2019-03-17T21:14:13.483Z,100482.36
2019-03-17T21:16:42.197Z,100484.97
2019-03-17T21:19:35.415Z,100483.31
2019-03-17T21:22:05.214Z,100493.72
2019-03-17T21:24:33.806Z,100374.20
2019-03-17T21:27:02.660Z,100486.21
2019-03-17T21:29:31.940Z,100484.29
2019-03-17T21:32:04.424Z,100491.80
2019-03-17T21:34:33.171Z,100506.53
2019-03-17T21:37:01.668Z,100514.64
2019-03-17T21:39:33.590Z,100512.11
2019-03-17T21:42:03.586Z,100510.25
2019-03-17T21:44:32.608Z,100515.91
2019-03-17T21:47:01.300Z,100523.44
2019-03-17T21:49:30.279Z,100520.38
2019-03-17T21:51:59.043Z,100527.52
2019-03-17T21:54:27.817Z,100521.20
2019-03-17T21:56:56.497Z,100500.57
2019-03-17T21:59:25.394Z,100514.72
2019-03-17T22:01:54.067Z,100523.19
2019-03-17T22:04:23.156Z,100511.83
2019-03-17T22:06:52.039Z,100508.91
2019-03-17T22:09:21.708Z,100522.61
2019-03-17T22:11:50.683Z,100527.72
2019-03-17T22:14:19.374Z,100524.91
2019-03-17T22:16:48.490Z,100521.41
2019-03-17T22:19:17.493Z,100521.92
2019-03-17T22:21:46.892Z,100522.88
2019-03-17T22:24:15.933Z,100522.53
2019-03-17T22:26:44.576Z,100534.34
2019-03-17T22:29:13.186Z,100536.44
2019-03-17T22:31:42.421Z,100546.83
2019-03-17T22:34:11.256Z,100535.92
2019-03-17T22:36:40.263Z,100537.01
2019-03-17T22:39:11.290Z,100537.76
2019-03-17T22:41:39.184Z,100541.32
2019-03-17T22:44:08.165Z,100524.95
2019-03-17T22:46:36.719Z,100536.30
2019-03-17T22:49:05.646Z,100546.78
2019-03-17T22:51:34.406Z,100546.11
2019-03-17T22:54:03.058Z,100541.30
2019-03-17T22:56:31.860Z,100540.16
2019-03-17T22:59:00.555Z,100551.23
2019-03-17T23:01:29.245Z,100542.25
2019-03-17T23:03:57.972Z,100548.77
2019-03-17T23:06:26.633Z,100538.68
2019-03-17T23:08:55.267Z,100553.91
2019-03-17T23:11:24.060Z,100554.11
2019-03-17T23:13:52.874Z,100556.81
2019-03-17T23:16:21.532Z,100558.92
2019-03-17T23:18:50.128Z,100561.98
2019-03-17T23:21:18.915Z,100571.66
2019-03-17T23:23:47.616Z,100574.99
2019-03-17T23:26:16.263Z,100573.45
2019-03-17T23:28:44.895Z,100565.05
2019-03-17T23:31:13.669Z,100565.64
2019-03-17T23:33:42.332Z,100568.55
2019-03-17T23:36:11.061Z,100576.73
2019-03-17T23:38:39.773Z,100572.27
2019-03-17T23:41:08.548Z,100582.39
2019-03-17T23:43:37.275Z,100576.73
2019-03-17T23:46:06.005Z,100570.79
2019-03-17T23:48:34.739Z,100577.24
2019-03-17T23:51:03.592Z,100580.67
2019-03-17T23:53:32.277Z,100576.07
2019-03-17T23:56:01.016Z,100589.97
2019-03-17T23:58:29.736Z,100602.73
